createdAt,value
2023-05-14T00:05:14.915Z,13.27
2023-05-14T00:07:41.689Z,13.27
2023-05-14T00:10:43.664Z,12.50
2023-05-14T00:13:11.752Z,13.35
2023-05-14T00:15:38.438Z,12.77
2023-05-14T00:18:06.335Z,15.10
2023-05-14T00:20:47.594Z,14.15
2023-05-14T00:23:14.287Z,15.98
2023-05-14T00:25:46.226Z,12.10
2023-05-14T00:28:48.338Z,12.50
2023-05-14T00:31:34.853Z,12.80
2023-05-14T00:34:10.392Z,15.85
2023-05-14T00:39:28.049Z,14.43
2023-05-14T00:41:57.414Z,13.73
2023-05-14T00:44:24.228Z,12.48
2023-05-14T00:49:59.618Z,12.45
2023-05-14T00:52:51.119Z,14.13
2023-05-14T00:55:22.400Z,14.53
2023-05-14T00:57:51.078Z,12.20
2023-05-14T01:00:23.397Z,13.18
2023-05-14T01:02:53.331Z,11.95
2023-05-14T01:05:32.637Z,13.05
2023-05-14T01:11:59.885Z,16.23
2023-05-14T01:15:15.168Z,13.70
2023-05-14T01:18:20.412Z,18.52
2023-05-14T01:21:01.751Z,11.95
2023-05-14T01:26:38.872Z,19.65
2023-05-14T01:29:19.093Z,13.77
2023-05-14T01:34:55.581Z,13.35
2023-05-14T01:37:44.684Z,14.37
2023-05-14T01:40:11.853Z,14.68
2023-05-14T01:42:57.416Z,12.38
2023-05-14T01:48:20.017Z,12.73
2023-05-14T01:50:49.612Z,13.40
2023-05-14T01:53:25.433Z,13.35
2023-05-14T01:55:52.217Z,13.25
2023-05-14T01:59:11.316Z,11.50
2023-05-14T02:02:02.650Z,13.77
2023-05-14T02:04:29.433Z,12.37
2023-05-14T02:07:24.007Z,13.07
2023-05-14T02:09:51.773Z,12.25
2023-05-14T02:12:27.684Z,13.50
2023-05-14T02:15:59.978Z,12.60
2023-05-14T02:18:26.724Z,11.90
2023-05-14T02:21:02.262Z,23.30
2023-05-14T02:23:41.628Z,21.67
2023-05-14T02:26:10.265Z,12.68
2023-05-14T02:28:37.081Z,12.73
2023-05-14T02:31:06.728Z,15.10
2023-05-14T02:33:36.430Z,15.77
2023-05-14T02:36:03.314Z,25.25
2023-05-14T02:38:31.469Z,23.38
2023-05-14T02:41:33.404Z,24.40
2023-05-14T02:44:06.244Z,12.90
2023-05-14T02:46:36.043Z,22.48
2023-05-14T02:57:18.702Z,12.30
2023-05-14T03:00:12.475Z,15.98
2023-05-14T03:09:17.116Z,18.63
2023-05-14T03:11:46.624Z,17.60
2023-05-14T03:14:22.524Z,15.68
2023-05-14T03:16:49.441Z,13.68
2023-05-14T03:19:19.098Z,15.13
2023-05-14T03:21:45.880Z,21.00
2023-05-14T03:24:30.697Z,16.10
2023-05-14T03:26:57.367Z,18.33
2023-05-14T03:29:47.558Z,15.55
2023-05-14T03:32:14.811Z,17.92
2023-05-14T03:34:47.385Z,15.45
2023-05-14T03:37:25.076Z,16.07
2023-05-14T03:39:51.827Z,16.55
2023-05-14T03:42:36.067Z,13.10
2023-05-14T03:45:15.068Z,14.00
2023-05-14T03:48:10.900Z,19.85
2023-05-14T03:50:43.828Z,15.17
2023-05-14T03:53:29.091Z,15.63
2023-05-14T03:56:10.870Z,13.82
2023-05-14T04:01:59.445Z,15.07
2023-05-14T04:04:26.263Z,12.07
2023-05-14T04:06:53.021Z,15.57
2023-05-14T04:09:25.473Z,15.00
2023-05-14T04:12:01.075Z,13.05
2023-05-14T04:14:51.615Z,13.05
2023-05-14T04:17:30.604Z,14.77
2023-05-14T04:20:20.997Z,12.07
2023-05-14T04:32:01.807Z,13.50
2023-05-14T04:34:43.957Z,13.20
2023-05-14T04:37:22.030Z,16.48
2023-05-14T04:42:56.542Z,14.88
2023-05-14T04:45:23.905Z,21.47
2023-05-14T04:48:08.902Z,13.18
2023-05-14T04:50:44.873Z,12.52
2023-05-14T04:53:13.827Z,14.30
2023-05-14T04:55:55.869Z,12.85
2023-05-14T05:12:05.655Z,12.32
2023-05-14T05:14:38.529Z,14.63
2023-05-14T05:20:17.614Z,11.73
2023-05-14T05:22:50.037Z,16.23
2023-05-14T05:25:16.720Z,17.35
2023-05-14T05:27:45.524Z,12.93
2023-05-14T05:30:18.431Z,13.15
2023-05-14T05:32:47.738Z,10.40
2023-05-14T05:35:20.297Z,12.13
2023-05-14T05:37:52.886Z,12.98
2023-05-14T05:40:22.535Z,12.13
2023-05-14T05:42:49.612Z,13.00
2023-05-14T05:55:29.548Z,17.57
2023-05-14T06:00:51.407Z,22.45
2023-05-14T06:03:21.374Z,15.48
2023-05-14T06:09:29.198Z,13.13
2023-05-14T06:11:56.158Z,12.55
2023-05-14T06:14:25.874Z,15.32
2023-05-14T06:17:19.658Z,13.35
2023-05-14T06:19:46.438Z,16.63
2023-05-14T06:22:22.297Z,11.03
2023-05-14T06:25:14.720Z,10.68
2023-05-14T06:28:03.411Z,13.50
2023-05-14T06:30:30.133Z,11.77
2023-05-14T06:33:03.197Z,21.83
2023-05-14T06:35:34.132Z,11.90
2023-05-14T06:38:00.800Z,12.07
2023-05-14T06:40:30.426Z,15.05
2023-05-14T06:43:03.863Z,13.52
2023-05-14T06:45:37.795Z,12.50
2023-05-14T06:48:10.266Z,20.93
2023-05-14T06:50:37.077Z,13.15
2023-05-14T06:53:03.823Z,12.98
2023-05-14T06:58:29.438Z,13.88
2023-05-14T07:01:08.568Z,12.23
2023-05-14T07:03:38.445Z,13.13
2023-05-14T07:06:05.533Z,20.15
2023-05-14T07:09:10.313Z,10.70
2023-05-14T07:12:07.536Z,11.20
2023-05-14T07:14:59.180Z,11.20
2023-05-14T07:17:38.751Z,11.65
2023-05-14T10:09:36.528Z,5.13
2023-05-14T10:15:42.732Z,5.93
2023-05-14T11:01:15.967Z,10.88
2023-05-14T11:13:22.534Z,5.83
2023-05-14T11:15:50.366Z,4.38
2023-05-14T11:31:46.386Z,5.10
2023-05-14T12:42:44.495Z,4.13
2023-05-14T13:44:02.121Z,6.93
2023-05-14T13:54:51.486Z,7.10
2023-05-14T13:57:19.134Z,5.47
2023-05-14T13:59:50.389Z,6.20
2023-05-14T14:05:47.305Z,8.40
2023-05-14T14:11:40.649Z,4.57
2023-05-14T14:14:09.794Z,4.53
2023-05-14T14:16:36.630Z,5.60
2023-05-14T14:19:07.042Z,4.93
2023-05-14T14:21:43.217Z,5.25
2023-05-14T14:24:12.899Z,3.45
2023-05-14T14:26:41.924Z,4.10
2023-05-14T14:29:15.011Z,4.18
2023-05-14T14:31:42.053Z,6.25
2023-05-14T14:34:08.989Z,5.18
2023-05-14T14:36:41.234Z,4.53
2023-05-14T14:39:09.371Z,5.23
2023-05-14T14:41:39.475Z,4.80
2023-05-14T14:44:15.380Z,5.13
2023-05-14T14:46:47.263Z,7.13
2023-05-14T14:49:14.059Z,8.23
2023-05-14T14:54:28.480Z,4.50
2023-05-14T14:57:00.008Z,4.32
2023-05-14T14:59:27.644Z,9.52
2023-05-14T15:01:57.245Z,5.35
2023-05-14T15:04:38.683Z,5.87
2023-05-14T15:07:16.358Z,10.38
2023-05-14T15:09:45.085Z,5.15
2023-05-14T15:12:20.595Z,5.43
2023-05-14T15:14:55.939Z,6.32
2023-05-14T15:17:22.777Z,7.83
2023-05-14T15:19:52.705Z,7.55
2023-05-14T15:22:27.458Z,6.53
2023-05-14T15:24:59.814Z,6.38
2023-05-14T15:27:28.658Z,7.68
2023-05-14T15:29:59.345Z,8.40
2023-05-14T15:32:39.300Z,8.35
2023-05-14T15:35:14.303Z,9.40
2023-05-14T15:37:43.583Z,9.30
2023-05-14T15:40:11.499Z,8.82
2023-05-14T15:42:42.525Z,13.67
2023-05-14T15:45:10.860Z,8.00
2023-05-14T15:47:37.693Z,12.10
2023-05-14T15:50:10.588Z,6.18
2023-05-14T15:52:44.760Z,9.60
2023-05-14T15:55:11.665Z,6.00
2023-05-14T15:57:42.947Z,12.32
2023-05-14T16:00:12.992Z,7.10
2023-05-14T16:02:51.635Z,11.18
2023-05-14T16:05:18.600Z,6.47
2023-05-14T16:07:45.980Z,7.23
2023-05-14T16:10:13.021Z,6.70
2023-05-14T16:13:18.366Z,11.07
2023-05-14T16:16:12.409Z,8.30
2023-05-14T16:21:52.524Z,8.13
2023-05-14T16:24:28.530Z,10.10
2023-05-14T16:26:58.332Z,8.50
2023-05-14T16:29:31.199Z,6.50
2023-05-14T16:32:01.011Z,6.70
2023-05-14T16:34:29.078Z,6.30
2023-05-14T16:36:56.366Z,7.07
2023-05-14T16:39:35.640Z,7.22
2023-05-14T16:42:10.006Z,6.90
2023-05-14T16:44:43.039Z,7.97
2023-05-14T16:47:29.912Z,7.33
2023-05-14T16:50:09.418Z,7.63
2023-05-14T16:52:37.527Z,9.48
2023-05-14T16:55:04.778Z,7.07
2023-05-14T16:57:41.740Z,7.60
2023-05-14T17:00:10.277Z,7.50
2023-05-14T17:02:38.340Z,7.28
2023-05-14T17:05:06.105Z,9.00
2023-05-14T17:07:35.172Z,6.70
2023-05-14T17:10:02.217Z,8.98
2023-05-14T17:12:28.938Z,6.00
2023-05-14T17:15:08.432Z,6.38
2023-05-14T17:17:37.698Z,7.45
2023-05-14T17:20:06.867Z,8.13
2023-05-14T17:22:34.634Z,9.75
2023-05-14T17:25:39.315Z,6.87
2023-05-14T17:28:06.137Z,8.05
2023-05-14T17:30:33.083Z,7.45
2023-05-14T17:33:00.027Z,7.30
2023-05-14T17:35:27.090Z,7.78
2023-05-14T17:37:53.939Z,7.50
2023-05-14T17:40:20.639Z,9.35
2023-05-14T17:42:48.423Z,8.38
2023-05-14T17:45:15.144Z,8.25
2023-05-14T17:47:42.017Z,7.68
2023-05-14T17:50:09.089Z,7.00
2023-05-14T17:52:35.841Z,8.52
2023-05-14T17:55:02.706Z,9.05
2023-05-14T17:57:29.652Z,6.72
2023-05-14T17:59:56.322Z,7.80
2023-05-14T18:02:23.116Z,7.40
2023-05-14T18:04:49.983Z,9.95
2023-05-14T18:07:16.831Z,7.47
2023-05-14T18:09:43.964Z,9.55
2023-05-14T18:12:11.032Z,7.78
2023-05-14T18:14:38.929Z,6.90
2023-05-14T18:17:05.838Z,6.47
2023-05-14T18:19:32.710Z,7.70
2023-05-14T18:21:59.464Z,8.98
2023-05-14T18:24:26.185Z,7.10
2023-05-14T18:26:55.466Z,6.87
2023-05-14T18:29:22.257Z,5.85
2023-05-14T18:31:48.967Z,7.53
2023-05-14T18:34:15.689Z,7.20
2023-05-14T18:36:42.511Z,9.13
2023-05-14T18:39:09.552Z,7.60
2023-05-14T18:41:36.216Z,7.65
2023-05-14T18:44:02.967Z,9.18
2023-05-14T18:46:30.126Z,13.48
2023-05-14T18:48:56.864Z,7.30
2023-05-14T18:51:23.745Z,9.93
2023-05-14T18:53:50.476Z,8.90
2023-05-14T18:56:17.181Z,7.70
2023-05-14T18:58:43.959Z,8.65
2023-05-14T19:01:10.768Z,8.20
2023-05-14T19:03:37.743Z,8.10
2023-05-14T19:06:06.646Z,8.18
2023-05-14T19:08:33.447Z,11.18
2023-05-14T19:11:00.191Z,7.85
2023-05-14T19:13:56.164Z,7.55
2023-05-14T19:16:23.028Z,7.10
2023-05-14T19:18:50.355Z,9.10
2023-05-14T19:21:17.133Z,8.05
2023-05-14T19:23:43.856Z,6.72
2023-05-14T19:26:21.873Z,7.70
2023-05-14T19:28:48.591Z,6.13
2023-05-14T19:31:15.343Z,6.22
2023-05-14T19:33:44.390Z,7.28
2023-05-14T19:36:13.686Z,7.07
2023-05-14T19:39:13.849Z,6.47
2023-05-14T19:45:21.763Z,7.43
2023-05-14T19:55:38.968Z,11.13
2023-05-14T19:58:16.191Z,5.73
2023-05-14T20:01:07.426Z,6.57
2023-05-14T20:04:10.275Z,7.15
2023-05-14T20:06:55.488Z,9.45
2023-05-14T21:20:37.320Z,8.40
2023-05-14T21:23:07.211Z,8.70
2023-05-14T21:52:07.879Z,10.60
2023-05-14T21:54:40.977Z,13.10
2023-05-14T21:57:34.268Z,12.15
2023-05-14T22:00:38.846Z,13.98
2023-05-14T22:03:14.833Z,12.10
2023-05-14T22:05:47.712Z,17.23
2023-05-14T22:08:27.886Z,15.50
2023-05-14T22:11:03.998Z,14.90
2023-05-14T22:18:55.749Z,20.08
2023-05-14T22:21:33.487Z,14.43
2023-05-14T22:24:11.512Z,14.98
2023-05-14T22:26:44.302Z,17.60
2023-05-14T22:29:17.890Z,15.40
2023-05-14T22:31:44.737Z,14.48
2023-05-14T22:34:14.527Z,18.15
2023-05-14T22:36:44.286Z,14.80
2023-05-14T22:39:20.203Z,16.00
2023-05-14T22:41:47.112Z,16.70
2023-05-14T22:44:20.279Z,16.67
2023-05-14T22:56:44.389Z,15.93
2023-05-14T23:41:22.315Z,21.70
